LEALLEBG

Guest
Details From LEAL - Alicante
To LEBG - Burgos
Flight Number -
Tags decoded
Created
Modified
Stats Distance 282 nm / 522 km
Max Altitude 0 ft / 0 m
Waypoints 2
Social Downloads 0
Likes 0
Share VATSIM

Download

Looking for another format? Having issues loading an existing format? Contact us
Advertisement - Login to hide

Notes

Requested: LEAL LEBG

Route

LEAL LEBG

ID Type Via Altitude Latitude Longitude Leg Dist Tot Dist Heading (true) Name
O LEAL APT - 0 ft / 0 m 38.28217˚ -0.55816˚ - 0 nm - Alicante
O LEBG APT - 0 ft / 0 m 42.35689˚ -3.61422˚ 281 nm 281 nm 331° / 329° Burgos

Altitude Profile

Advertisement - Login to hide

Weather


0- 5 10 15 20 25 30 35+ Temperature / ° C

Clouds and Precipitation
Forecast for 2017-12-13 06:00 UTC. Updated 31 minutes ago

Ground ~20,000 ft ~40,000 ft Winds

LEAL

Details ICAO LEAL (ALC)
Name Alicante
Region Spain
Timezone Europe/Madrid (UTC+1.0)
Stats Elevation 141 ft / 43 m (AMSL)
Location 38.282169° -0.558157°
Runways 1
Magnetic Variation 0.183° E

METAR

LEAL 130130Z 31009KT CAVOK 08/M02 Q1024 NOSIG

Decode

TAF

TAF TAF LEAL 122300Z 1300/1324 31008KT CAVOK TX17/1312Z TN04/1306Z BECMG 1312/1314 24010KT

Decode

Departure Runways

ID Width Length Bearing (true) Bearing (mag) Surface Threshold Offset Overrun Length
10 148 ft / 45 m 9,799 ft / 2,987 m 100.07° 99.89° Asphalt 0 ft / 0 m 164 ft / 50 m
28 148 ft / 45 m 9,799 ft / 2,987 m 280.09° 279.91° Asphalt 0 ft / 0 m 197 ft / 60 m

LEBG

Details ICAO LEBG (RGS)
Name Burgos
Region Spain
Timezone Europe/Madrid (UTC+1.0)
Stats Elevation 2,961 ft / 903 m (AMSL)
Location 42.356895° -3.614221°
Runways 1
Magnetic Variation 0.788° W

METAR

LEBG 130130Z AUTO 18008KT 9999 NCD 00/M01 Q1023

Decode

TAF

Not found

Destination Runways

ID Width Length Bearing (true) Bearing (mag) Surface Threshold Offset Overrun Length
04 148 ft / 45 m 6,423 ft / 1,958 m 43.31° 44.10° Asphalt 0 ft / 0 m 0 ft / 0 m
22 148 ft / 45 m 6,423 ft / 1,958 m 223.32° 224.11° Asphalt 0 ft / 0 m 0 ft / 0 m

Popular Alternatives